TimeEDT,TemperatureF,Dew PointF,Humidity,Sea Level PressureIn,VisibilityMPH,Wind Direction,Wind SpeedMPH,Gust SpeedMPH,PrecipitationIn,Events,Conditions,WindDirDegrees,DateUTC
12:56 AM,70.0,61.0,73,30.12,10.0,SSW,5.8,-,N/A,,Clear,200,2013-05-10 04:56:00
1:56 AM,69.1,60.1,73,30.10,10.0,SSW,4.6,-,N/A,,Clear,210,2013-05-10 05:56:00
2:56 AM,66.0,59.0,78,30.09,10.0,SSW,4.6,-,N/A,,Clear,210,2013-05-10 06:56:00
3:56 AM,66.0,57.9,75,30.10,10.0,SW,4.6,-,N/A,,Clear,230,2013-05-10 07:56:00
4:56 AM,64.9,57.9,78,30.09,10.0,SW,5.8,-,N/A,,Clear,220,2013-05-10 08:56:00
5:56 AM,64.0,57.0,78,30.08,10.0,Calm,Calm,-,N/A,,Clear,0,2013-05-10 09:56:00
6:56 AM,63.0,57.0,81,30.09,10.0,Calm,Calm,-,N/A,,Scattered Clouds,0,2013-05-10 10:56:00
7:56 AM,68.0,59.0,73,30.09,10.0,SW,3.5,-,N/A,,Scattered Clouds,220,2013-05-10 11:56:00
8:56 AM,73.0,61.0,66,30.10,10.0,SSW,4.6,-,N/A,,Scattered Clouds,210,2013-05-10 12:56:00
9:56 AM,78.1,61.0,56,30.10,10.0,Calm,Calm,-,N/A,,Scattered Clouds,0,2013-05-10 13:56:00
10:56 AM,81.0,62.1,52,30.08,10.0,SSE,3.5,-,N/A,,Clear,160,2013-05-10 14:56:00
11:56 AM,82.0,61.0,49,30.09,10.0,SSE,8.1,-,N/A,,Clear,160,2013-05-10 15:56:00
12:56 PM,84.0,61.0,46,30.10,10.0,South,5.8,-,N/A,,Scattered Clouds,180,2013-05-10 16:56:00
1:56 PM,84.9,57.9,40,30.09,10.0,South,10.4,-,N/A,,Scattered Clouds,180,2013-05-10 17:56:00
2:56 PM,84.9,59.0,41,30.08,10.0,South,9.2,20.7,N/A,,Scattered Clouds,180,2013-05-10 18:56:00
3:56 PM,84.9,60.1,43,30.05,10.0,SSW,11.5,19.6,N/A,,Mostly Cloudy,210,2013-05-10 19:56:00
4:56 PM,82.9,60.1,46,30.03,10.0,SSW,10.4,18.4,N/A,,Mostly Cloudy,200,2013-05-10 20:56:00
5:56 PM,80.1,64.0,58,30.02,10.0,South,5.8,-,N/A,,Overcast,180,2013-05-10 21:56:00
6:56 PM,77.0,64.0,64,30.02,10.0,South,3.5,-,N/A,,Clear,170,2013-05-10 22:56:00
7:56 PM,75.0,64.9,71,30.02,10.0,South,4.6,-,N/A,,Clear,170,2013-05-10 23:56:00
8:56 PM,73.9,64.9,73,30.02,10.0,South,5.8,-,N/A,,Clear,170,2013-05-11 00:56:00
9:56 PM,73.9,64.0,71,30.03,10.0,South,4.6,-,N/A,,Clear,170,2013-05-11 01:56:00
10:56 PM,73.0,64.9,76,30.04,10.0,South,8.1,-,N/A,,Clear,180,2013-05-11 02:56:00
11:56 PM,73.0,66.0,79,30.04,10.0,South,5.8,-,N/A,,Clear,190,2013-05-11 03:56:00